Time;durP1;ratioP1;P1;durP2;ratioP2;P2;SDS_P1;SDS_P2;PMS_P1;PMS_P2;Temp;Humidity;BMP_temperature;BMP_pressure;BME280_temperature;BME280_humidity;BME280_pressure;Samples;Min_cycle;Max_cycle;Signal;HPM_P1;HPM_P2
2023/11/08 00:00:25;;;;;;;3.90;3.03;;;5.70;99.90;;;;;;5033976;28;20677;-65
2023/11/08 00:02:56;;;;;;;3.88;2.75;;;5.70;99.90;;;;;;5032033;28;20049;-65
2023/11/08 00:05:29;;;;;;;3.20;2.50;;;5.80;99.90;;;;;;5030494;28;20040;-64
2023/11/08 00:07:56;;;;;;;5.22;2.80;;;5.80;99.90;;;;;;5029767;28;20214;-65
2023/11/08 00:10:27;;;;;;;3.67;2.55;;;5.70;99.90;;;;;;5015893;28;20084;-65
2023/11/08 00:12:59;;;;;;;3.40;2.47;;;5.70;99.90;;;;;;5038104;28;20045;-65
2023/11/08 00:15:31;;;;;;;3.33;2.42;;;5.70;99.90;;;;;;5028386;28;20406;-64
2023/11/08 00:18:05;;;;;;;3.78;2.10;;;5.70;99.90;;;;;;5025438;28;20052;-65
2023/11/08 00:20:37;;;;;;;;;;;5.70;99.90;;;;;;5031459;28;20148;-64
2023/11/08 00:23:09;;;;;;;4.75;2.67;;;5.70;99.90;;;;;;5037523;28;19925;-64
2023/11/08 00:25:40;;;;;;;4.38;2.35;;;5.70;99.90;;;;;;5035966;28;20052;-65
2023/11/08 00:28:12;;;;;;;2.92;1.95;;;5.70;99.90;;;;;;5034940;28;20044;-65
2023/11/08 00:30:44;;;;;;;4.53;1.90;;;5.70;99.90;;;;;;5038148;28;20048;-64
2023/11/08 00:33:17;;;;;;;3.45;1.98;;;5.70;99.90;;;;;;5053571;28;20119;-64
2023/11/08 00:35:49;;;;;;;5.72;2.17;;;5.70;99.90;;;;;;5036511;28;20083;-64
2023/11/08 00:38:21;;;;;;;4.63;1.98;;;5.70;99.90;;;;;;5035096;28;20049;-65
2023/11/08 00:40:53;;;;;;;2.65;1.50;;;5.70;99.90;;;;;;5040991;28;20060;-64
2023/11/08 00:43:25;;;;;;;3.38;2.08;;;5.70;99.90;;;;;;5045944;28;20050;-64
2023/11/08 00:46:02;;;;;;;2.42;1.88;;;5.70;99.90;;;;;;5051496;28;20050;-64
2023/11/08 00:48:36;;;;;;;3.28;1.80;;;5.70;99.90;;;;;;5054406;28;20051;-64
2023/11/08 00:51:08;;;;;;;4.43;2.42;;;5.70;99.90;;;;;;5045991;28;20048;-64
2023/11/08 00:53:39;;;;;;;2.38;1.70;;;5.70;99.90;;;;;;5028828;28;20053;-65
2023/11/08 00:56:12;;;;;;;3.03;1.50;;;5.60;99.90;;;;;;5041312;28;20141;-65
2023/11/08 00:58:44;;;;;;;2.67;1.60;;;5.60;99.90;;;;;;5026799;28;20052;-65
2023/11/08 01:01:16;;;;;;;3.10;1.70;;;5.60;99.90;;;;;;5041281;28;20505;-65
2023/11/08 01:03:43;;;;;;;3.00;2.10;;;5.60;99.90;;;;;;5050284;28;20080;-65
2023/11/08 01:06:09;;;;;;;3.55;1.50;;;5.60;99.90;;;;;;5044132;28;20051;-65
2023/11/08 01:08:41;;;;;;;4.57;1.60;;;5.60;99.90;;;;;;5036999;28;20048;-65
2023/11/08 01:11:13;;;;;;;3.38;1.67;;;5.60;99.90;;;;;;5049427;28;20048;-65
2023/11/08 01:13:45;;;;;;;2.17;1.40;;;5.60;99.90;;;;;;5051308;28;20130;-65
2023/11/08 01:16:17;;;;;;;4.18;1.23;;;5.60;99.90;;;;;;5042187;28;20428;-65
2023/11/08 01:18:49;;;;;;;2.45;1.10;;;5.70;99.90;;;;;;5043852;28;20053;-65
2023/11/08 01:21:22;;;;;;;1.60;1.20;;;5.60;99.90;;;;;;5039196;28;20521;-64
2023/11/08 01:23:54;;;;;;;2.58;1.10;;;5.60;99.90;;;;;;5053429;28;20421;-65
2023/11/08 01:26:25;;;;;;;2.40;1.30;;;5.60;99.90;;;;;;5048630;28;20736;-65
2023/11/08 01:28:52;;;;;;;3.75;1.00;;;5.70;99.90;;;;;;5051937;28;20044;-65
2023/11/08 01:31:24;;;;;;;3.15;1.27;;;5.70;99.90;;;;;;5046429;28;20041;-65
2023/11/08 01:33:58;;;;;;;2.20;1.20;;;5.60;99.90;;;;;;5045010;28;20077;-64
2023/11/08 01:36:30;;;;;;;1.58;1.10;;;5.70;99.90;;;;;;5051486;28;20498;-65
2023/11/08 01:39:03;;;;;;;2.37;0.90;;;5.60;99.90;;;;;;5052669;28;20506;-65
2023/11/08 01:41:35;;;;;;;4.18;1.30;;;5.60;99.90;;;;;;5035951;28;20391;-64
2023/11/08 01:44:07;;;;;;;3.17;1.05;;;5.60;99.90;;;;;;5040987;28;20581;-65
2023/11/08 01:46:39;;;;;;;3.45;1.20;;;5.60;99.90;;;;;;5020743;28;20056;-65
2023/11/08 01:49:12;;;;;;;1.25;0.70;;;5.60;99.90;;;;;;5050136;28;20535;-65
2023/11/08 01:51:40;;;;;;;3.78;1.20;;;5.50;99.90;;;;;;5053494;28;20065;-65
2023/11/08 01:54:13;;;;;;;5.40;0.90;;;5.50;99.90;;;;;;5034575;28;20044;-65
2023/11/08 01:56:44;;;;;;;6.32;2.65;;;5.50;99.90;;;;;;5046178;28;20037;-65
2023/11/08 01:59:17;;;;;;;4.00;1.10;;;5.50;99.90;;;;;;5040824;28;20084;-65
2023/11/08 02:01:49;;;;;;;;;;;5.40;99.90;;;;;;5042700;28;20126;-65
2023/11/08 02:04:17;;;;;;;2.97;1.20;;;5.50;99.90;;;;;;5042763;28;19931;-65
2023/11/08 02:06:44;;;;;;;4.47;1.15;;;5.50;99.90;;;;;;5039450;28;20052;-64
2023/11/08 02:09:11;;;;;;;2.33;0.82;;;5.50;99.90;;;;;;5026150;28;20045;-64
2023/11/08 02:11:44;;;;;;;2.63;0.98;;;5.50;99.90;;;;;;5044198;28;20044;-65
2023/11/08 02:14:11;;;;;;;2.53;1.55;;;5.50;99.90;;;;;;5046925;28;20234;-65
2023/11/08 02:16:40;;;;;;;3.33;0.80;;;5.50;99.90;;;;;;5047727;28;20066;-64
2023/11/08 02:19:12;;;;;;;2.15;1.08;;;5.50;99.90;;;;;;5026719;28;20056;-64
2023/11/08 02:21:44;;;;;;;6.03;2.35;;;5.60;99.90;;;;;;5030426;28;20050;-65
2023/11/08 02:24:21;;;;;;;1.42;0.93;;;5.60;99.90;;;;;;5046577;28;20132;-65
2023/11/08 02:26:48;;;;;;;2.70;1.00;;;5.60;99.90;;;;;;5045517;28;20801;-64
2023/11/08 02:29:20;;;;;;;4.15;0.88;;;5.50;99.90;;;;;;5042028;28;20063;-65
2023/11/08 02:31:52;;;;;;;3.45;1.20;;;5.60;99.90;;;;;;5047090;28;20041;-65
2023/11/08 02:34:24;;;;;;;3.47;1.13;;;5.60;99.90;;;;;;5005256;28;20557;-65
2023/11/08 02:36:56;;;;;;;4.90;1.10;;;5.60;99.90;;;;;;5047727;28;20045;-65
2023/11/08 02:39:28;;;;;;;3.95;1.10;;;5.50;99.90;;;;;;5040546;28;20832;-64
2023/11/08 02:42:00;;;;;;;2.40;1.02;;;5.60;99.90;;;;;;5046965;28;20045;-65
2023/11/08 02:44:27;;;;;;;6.07;1.20;;;5.60;99.90;;;;;;5017527;28;20042;-65
2023/11/08 02:46:59;;;;;;;3.42;2.03;;;5.60;99.90;;;;;;5029800;28;20050;-65
2023/11/08 02:49:31;;;;;;;1.75;1.20;;;5.60;99.90;;;;;;5048764;28;20037;-65
2023/11/08 02:52:03;;;;;;;1.95;0.95;;;5.60;99.90;;;;;;5038357;28;20424;-65
2023/11/08 02:54:36;;;;;;;1.92;1.25;;;5.50;99.90;;;;;;5037563;28;20128;-65
2023/11/08 02:57:08;;;;;;;2.03;1.48;;;5.50;99.90;;;;;;5033157;28;20033;-65
2023/11/08 02:59:40;;;;;;;4.60;1.20;;;5.40;99.90;;;;;;5045341;28;20139;-64
2023/11/08 03:02:09;;;;;;;2.92;1.02;;;5.40;99.90;;;;;;5054315;28;20034;-65
2023/11/08 03:04:41;;;;;;;7.00;1.30;;;5.30;99.90;;;;;;5041526;28;20044;-65
2023/11/08 03:07:08;;;;;;;2.40;0.93;;;5.30;99.90;;;;;;5038817;28;20041;-65
2023/11/08 03:09:35;;;;;;;3.92;1.10;;;5.30;99.90;;;;;;5040768;28;20043;-64
2023/11/08 03:12:08;;;;;;;2.97;1.05;;;5.30;99.90;;;;;;5033689;28;20069;-65
2023/11/08 03:14:40;;;;;;;1.50;1.05;;;5.30;99.90;;;;;;5034868;28;20046;-65
2023/11/08 03:17:12;;;;;;;4.70;1.10;;;5.30;99.90;;;;;;5050931;28;20144;-65
2023/11/08 03:19:42;;;;;;;2.45;0.90;;;5.30;99.90;;;;;;5046365;28;20042;-64
2023/11/08 03:22:16;;;;;;;1.17;0.82;;;5.30;99.90;;;;;;5047501;28;20055;-65
2023/11/08 03:24:43;;;;;;;3.33;1.05;;;5.30;99.90;;;;;;5048714;28;20132;-65
2023/11/08 03:27:15;;;;;;;4.05;1.13;;;5.30;99.90;;;;;;5030171;28;20417;-65
2023/11/08 03:29:46;;;;;;;3.33;1.20;;;5.30;99.90;;;;;;5042056;28;20040;-65
2023/11/08 03:32:18;;;;;;;1.95;1.25;;;5.30;99.90;;;;;;5042582;28;20037;-65
2023/11/08 03:34:45;;;;;;;2.45;1.88;;;5.20;99.90;;;;;;5047483;28;20124;-65
2023/11/08 03:37:17;;;;;;;1.88;0.95;;;5.30;99.90;;;;;;5051369;28;20514;-65
2023/11/08 03:39:51;;;;;;;1.98;1.02;;;5.30;99.90;;;;;;5041878;28;20133;-65
2023/11/08 03:42:25;;;;;;;2.15;1.05;;;5.30;99.90;;;;;;5033045;28;20042;-64
2023/11/08 03:44:57;;;;;;;2.55;1.13;;;5.40;99.90;;;;;;5042475;28;20406;-65
2023/11/08 03:47:30;;;;;;;2.50;1.30;;;5.40;99.90;;;;;;5031084;28;20069;-65
2023/11/08 03:49:58;;;;;;;1.73;1.20;;;5.30;99.90;;;;;;5045136;28;20468;-65
2023/11/08 03:52:31;;;;;;;2.30;1.20;;;5.30;99.90;;;;;;5029232;28;20069;-65
2023/11/08 03:55:03;;;;;;;1.13;0.85;;;5.30;99.90;;;;;;5037548;28;20051;-65
2023/11/08 03:57:35;;;;;;;3.92;1.27;;;5.30;99.90;;;;;;5046840;28;20056;-65
2023/11/08 04:00:04;;;;;;;3.08;1.10;;;5.40;99.90;;;;;;5045272;28;20050;-65
2023/11/08 04:02:38;;;;;;;1.55;0.90;;;5.40;99.90;;;;;;5040754;28;20049;-65
2023/11/08 04:05:10;;;;;;;2.10;0.98;;;5.40;99.90;;;;;;5041464;28;20046;-65
2023/11/08 04:07:42;;;;;;;3.38;1.02;;;5.40;99.90;;;;;;5038247;28;20059;-64
2023/11/08 04:10:14;;;;;;;2.13;1.10;;;5.50;99.90;;;;;;5036307;28;20526;-65
2023/11/08 04:12:46;;;;;;;2.88;1.67;;;5.50;99.90;;;;;;5021494;28;20670;-65
2023/11/08 04:15:18;;;;;;;5.22;1.02;;;5.50;99.90;;;;;;5039194;28;20048;-65
2023/11/08 04:17:50;;;;;;;2.33;1.10;;;5.60;99.90;;;;;;5043159;28;20378;-64
2023/11/08 04:20:18;;;;;;;2.60;1.10;;;5.60;99.90;;;;;;5032433;28;20152;-65
2023/11/08 04:22:50;;;;;;;2.53;1.42;;;5.60;99.90;;;;;;5034180;28;20044;-65
2023/11/08 04:25:17;;;;;;;2.60;1.10;;;5.60;99.90;;;;;;5037313;28;20053;-65
2023/11/08 04:27:49;;;;;;;2.25;1.17;;;5.60;99.90;;;;;;5046333;28;20048;-64
2023/11/08 04:30:22;;;;;;;3.63;1.33;;;5.70;99.90;;;;;;5035503;28;20048;-65
2023/11/08 04:32:54;;;;;;;1.90;1.10;;;5.70;99.90;;;;;;5036885;28;20108;-65
2023/11/08 04:35:21;;;;;;;2.80;1.05;;;5.60;99.90;;;;;;5036174;28;20042;-65
2023/11/08 04:37:53;;;;;;;2.20;1.13;;;5.70;99.90;;;;;;5045935;28;20513;-65
2023/11/08 04:40:26;;;;;;;1.50;0.90;;;5.70;99.90;;;;;;5038059;28;20130;-65
2023/11/08 04:42:57;;;;;;;2.90;1.65;;;5.60;99.90;;;;;;5035319;28;20143;-64
2023/11/08 04:45:29;;;;;;;3.22;1.10;;;5.60;99.90;;;;;;5041495;28;20037;-65
2023/11/08 04:48:01;;;;;;;2.88;0.90;;;5.60;99.90;;;;;;5045342;28;20100;-64
2023/11/08 04:50:34;;;;;;;3.83;1.05;;;5.60;99.90;;;;;;5032190;28;20053;-65
2023/11/08 04:53:01;;;;;;;3.28;0.93;;;5.60;99.90;;;;;;5033739;28;20049;-65
2023/11/08 04:55:27;;;;;;;3.10;0.93;;;5.60;99.90;;;;;;5045373;28;20038;-65
2023/11/08 04:57:59;;;;;;;2.22;1.10;;;5.60;99.90;;;;;;5041091;28;20068;-65
2023/11/08 05:00:31;;;;;;;1.13;0.80;;;5.60;99.90;;;;;;5045230;28;20033;-65
2023/11/08 05:03:03;;;;;;;1.30;0.82;;;5.70;99.90;;;;;;5032164;28;20056;-65
2023/11/08 05:05:30;;;;;;;2.13;1.05;;;5.70;99.90;;;;;;5033864;28;20564;-66
2023/11/08 05:08:04;;;;;;;3.50;1.05;;;5.70;99.90;;;;;;5028566;28;20050;-65
2023/11/08 05:10:37;;;;;;;2.72;0.90;;;5.70;99.90;;;;;;5038258;28;20050;-65
2023/11/08 05:13:09;;;;;;;1.42;0.90;;;5.70;99.90;;;;;;5034858;28;20041;-64
2023/11/08 05:15:42;;;;;;;2.00;1.02;;;5.80;99.90;;;;;;5031661;28;20124;-65
2023/11/08 05:18:14;;;;;;;1.67;1.05;;;5.80;99.90;;;;;;5034219;28;20041;-65
2023/11/08 05:20:46;;;;;;;3.58;1.23;;;5.80;99.90;;;;;;5032800;28;20049;-64
2023/11/08 05:23:12;;;;;;;2.63;1.00;;;5.80;99.90;;;;;;5034589;28;20047;-65
2023/11/08 05:25:40;;;;;;;1.52;0.93;;;5.80;99.90;;;;;;5047510;28;20158;-65
2023/11/08 05:28:11;;;;;;;3.17;1.10;;;5.80;99.90;;;;;;5047107;28;20497;-65
2023/11/08 05:30:40;;;;;;;3.40;1.10;;;5.80;99.90;;;;;;5031473;28;20037;-65
2023/11/08 05:33:09;;;;;;;4.50;1.15;;;5.90;99.90;;;;;;5036732;28;20128;-65
2023/11/08 05:35:42;;;;;;;3.33;1.10;;;5.80;99.90;;;;;;5037524;28;20045;-65
2023/11/08 05:38:09;;;;;;;2.85;1.13;;;5.80;99.90;;;;;;5040408;28;20401;-65
2023/11/08 05:40:42;;;;;;;2.38;1.35;;;5.80;99.90;;;;;;5038978;28;20584;-65
2023/11/08 05:43:14;;;;;;;2.10;1.00;;;5.80;99.90;;;;;;5049387;28;20544;-65
2023/11/08 05:45:46;;;;;;;2.67;1.00;;;5.80;99.90;;;;;;5041748;28;20053;-65
2023/11/08 05:48:12;;;;;;;2.30;0.85;;;5.80;99.90;;;;;;5038349;28;20402;-65
2023/11/08 05:50:44;;;;;;;2.70;0.95;;;5.90;99.90;;;;;;5038375;28;20122;-65
2023/11/08 05:53:14;;;;;;;2.17;0.95;;;5.90;99.90;;;;;;5033359;28;20044;-65
2023/11/08 05:55:46;;;;;;;4.07;0.95;;;5.90;99.90;;;;;;5028703;28;20452;-66
2023/11/08 05:58:14;;;;;;;3.83;1.20;;;5.90;99.90;;;;;;5039215;28;20682;-65
2023/11/08 06:00:46;;;;;;;5.15;1.08;;;5.90;99.90;;;;;;5027019;28;20046;-65
2023/11/08 06:03:18;;;;;;;1.83;0.90;;;5.90;99.90;;;;;;5031910;28;20124;-65
2023/11/08 06:05:49;;;;;;;2.85;1.80;;;6.00;99.90;;;;;;5028741;28;20061;-64
2023/11/08 06:08:21;;;;;;;2.17;1.20;;;6.00;99.90;;;;;;5031702;28;20128;-65
2023/11/08 06:10:49;;;;;;;3.47;0.98;;;6.00;99.90;;;;;;5036439;28;20033;-65
2023/11/08 06:13:16;;;;;;;2.33;1.33;;;6.00;99.90;;;;;;5027088;28;20140;-64
2023/11/08 06:15:48;;;;;;;2.58;1.20;;;6.00;99.90;;;;;;5029447;28;20029;-65
2023/11/08 06:18:18;;;;;;;1.50;0.85;;;6.00;99.90;;;;;;5037197;28;20034;-65
2023/11/08 06:20:50;;;;;;;4.07;1.10;;;6.00;99.90;;;;;;5032992;28;20051;-64
2023/11/08 06:23:22;;;;;;;1.77;1.08;;;5.90;99.90;;;;;;5030331;28;20111;-65
2023/11/08 06:25:54;;;;;;;2.80;0.95;;;5.90;99.90;;;;;;5025125;28;20045;-65
2023/11/08 06:28:21;;;;;;;4.18;1.20;;;5.90;99.90;;;;;;5031186;28;20044;-65
2023/11/08 06:30:48;;;;;;;6.22;2.05;;;5.90;99.90;;;;;;5021570;28;20121;-65
2023/11/08 06:33:20;;;;;;;3.83;1.30;;;5.90;99.90;;;;;;5036417;28;20041;-65
2023/11/08 06:35:52;;;;;;;2.63;1.48;;;5.90;99.90;;;;;;5047324;28;20052;-66
2023/11/08 06:38:24;;;;;;;2.05;1.30;;;5.90;99.90;;;;;;5040671;28;20091;-65
2023/11/08 06:40:56;;;;;;;3.67;1.33;;;5.90;99.90;;;;;;5024723;28;20100;-65
2023/11/08 06:43:28;;;;;;;1.65;1.20;;;5.90;99.90;;;;;;5042412;28;20121;-65
2023/11/08 06:46:00;;;;;;;3.42;2.20;;;6.00;99.90;;;;;;5039325;28;20142;-65
2023/11/08 06:48:32;;;;;;;2.35;1.55;;;6.00;99.90;;;;;;5020482;28;20049;-66
2023/11/08 06:51:05;;;;;;;1.35;0.90;;;6.00;99.90;;;;;;5038983;28;20136;-65
2023/11/08 06:53:37;;;;;;;2.30;1.00;;;6.00;99.90;;;;;;5049231;28;20048;-66
2023/11/08 06:56:11;;;;;;;2.42;1.33;;;6.00;99.90;;;;;;5045614;28;20125;-65
2023/11/08 06:58:43;;;;;;;;;;;6.00;99.90;;;;;;5046149;28;20045;-64
2023/11/08 07:01:15;;;;;;;2.20;1.10;;;6.00;99.90;;;;;;5027030;28;19929;-66
2023/11/08 07:03:42;;;;;;;2.42;1.50;;;6.00;99.90;;;;;;5032087;28;20036;-64
2023/11/08 07:06:14;;;;;;;1.95;1.02;;;6.00;99.90;;;;;;5033993;28;20419;-64
2023/11/08 07:08:41;;;;;;;3.88;1.10;;;6.00;99.90;;;;;;5046621;28;20041;-65
2023/11/08 07:11:13;;;;;;;2.42;1.30;;;6.00;99.90;;;;;;5037904;28;20219;-64
2023/11/08 07:13:45;;;;;;;3.78;1.25;;;6.10;99.90;;;;;;5021005;28;20533;-65
2023/11/08 07:16:18;;;;;;;2.15;1.17;;;6.10;99.90;;;;;;5035597;28;20033;-64
2023/11/08 07:18:45;;;;;;;2.30;1.33;;;6.20;99.90;;;;;;5040767;28;20124;-64
2023/11/08 07:21:21;;;;;;;2.58;1.50;;;6.20;99.90;;;;;;5048377;28;20052;-65
2023/11/08 07:23:52;;;;;;;2.67;1.45;;;6.10;99.90;;;;;;5037009;28;20418;-65
2023/11/08 07:26:24;;;;;;;2.80;1.25;;;6.10;99.90;;;;;;5030686;28;20033;-65
2023/11/08 07:28:51;;;;;;;2.38;1.20;;;6.10;99.90;;;;;;5038765;28;20127;-65
2023/11/08 07:31:23;;;;;;;2.65;1.95;;;6.10;99.90;;;;;;5035876;28;20524;-65
2023/11/08 07:33:55;;;;;;;2.45;1.50;;;6.10;99.90;;;;;;5033506;28;20048;-65
2023/11/08 07:36:29;;;;;;;2.33;1.70;;;6.10;99.90;;;;;;5034149;28;20037;-65
2023/11/08 07:39:02;;;;;;;;;;;6.10;99.90;;;;;;5044588;28;20111;-64
2023/11/08 07:41:34;;;;;;;2.70;0.95;;;6.20;99.90;;;;;;5036128;28;20334;-64
2023/11/08 07:44:02;;;;;;;3.08;1.42;;;6.20;99.90;;;;;;5036006;28;20044;-65
2023/11/08 07:46:34;;;;;;;1.60;0.93;;;6.20;99.90;;;;;;5039321;28;20042;-65
2023/11/08 07:49:02;;;;;;;2.45;1.40;;;6.20;99.90;;;;;;5037953;28;20487;-65
2023/11/08 07:51:34;;;;;;;1.73;1.10;;;6.20;99.90;;;;;;5039919;28;20061;-65
2023/11/08 07:54:06;;;;;;;1.60;1.08;;;6.20;99.90;;;;;;5033712;28;20163;-65
2023/11/08 07:56:38;;;;;;;2.97;1.20;;;6.20;99.90;;;;;;5027534;28;20128;-65
2023/11/08 07:59:05;;;;;;;2.08;1.15;;;6.20;99.90;;;;;;5035285;28;20140;-65
2023/11/08 08:01:32;;;;;;;3.10;1.00;;;6.30;99.90;;;;;;5028719;28;20034;-65
2023/11/08 08:04:05;;;;;;;1.70;1.10;;;6.30;99.90;;;;;;5036882;28;20044;-64
2023/11/08 08:06:32;;;;;;;1.92;1.10;;;6.30;99.90;;;;;;5031147;28;20041;-65
2023/11/08 08:09:05;;;;;;;2.05;1.17;;;6.30;99.90;;;;;;5034142;28;20044;-64
2023/11/08 08:11:32;;;;;;;2.20;1.00;;;6.30;99.90;;;;;;5035377;28;20033;-65
2023/11/08 08:14:04;;;;;;;1.60;0.80;;;6.40;99.90;;;;;;5036333;28;20046;-64
2023/11/08 08:16:39;;;;;;;1.80;0.93;;;6.40;99.90;;;;;;5036503;28;20049;-65
2023/11/08 08:19:06;;;;;;;3.03;1.23;;;6.40;99.90;;;;;;5037579;28;20940;-64
2023/11/08 08:21:33;;;;;;;2.15;1.10;;;6.50;99.90;;;;;;5035600;28;20033;-64
2023/11/08 08:24:05;;;;;;;1.70;1.20;;;6.50;99.90;;;;;;5032374;28;20045;-65
2023/11/08 08:26:39;;;;;;;2.25;1.08;;;6.50;99.90;;;;;;5038994;28;20037;-65
2023/11/08 08:29:13;;;;;;;;;;;6.50;99.90;;;;;;5044122;28;20048;-64
2023/11/08 08:31:45;;;;;;;4.30;1.20;;;6.50;99.90;;;;;;5027885;28;20007;-65
2023/11/08 08:34:17;;;;;;;4.38;1.00;;;6.60;99.90;;;;;;5033047;28;20057;-64
2023/11/08 08:36:49;;;;;;;1.02;0.75;;;6.60;99.90;;;;;;5038032;28;20041;-65
2023/11/08 08:39:24;;;;;;;2.30;0.90;;;6.70;99.90;;;;;;5047909;28;20505;-65
2023/11/08 08:41:50;;;;;;;2.35;1.17;;;6.70;99.90;;;;;;5036184;28;20132;-64
2023/11/08 08:44:23;;;;;;;3.00;1.17;;;6.80;99.90;;;;;;5037741;28;20041;-64
2023/11/08 08:46:55;;;;;;;1.30;0.70;;;6.80;99.90;;;;;;5039630;28;20051;-65
2023/11/08 08:49:27;;;;;;;3.03;0.73;;;6.90;99.90;;;;;;5037169;28;20052;-65
2023/11/08 08:51:59;;;;;;;2.65;1.00;;;7.00;99.90;;;;;;5036964;28;20044;-64
2023/11/08 08:54:31;;;;;;;2.10;1.10;;;7.10;99.90;;;;;;5033615;28;20773;-64
2023/11/08 08:57:03;;;;;;;4.43;1.10;;;7.10;99.90;;;;;;5043618;28;20517;-64
2023/11/08 08:59:35;;;;;;;2.03;1.13;;;7.10;99.90;;;;;;5029392;28;20076;-65
2023/11/08 09:02:07;;;;;;;3.97;1.60;;;7.20;99.90;;;;;;5029298;28;20551;-64
2023/11/08 09:04:39;;;;;;;3.35;1.88;;;7.20;99.90;;;;;;5044735;28;20052;-65
2023/11/08 09:07:06;;;;;;;1.77;0.90;;;7.20;99.90;;;;;;5032990;28;20046;-65
2023/11/08 09:09:38;;;;;;;3.40;1.23;;;7.20;99.90;;;;;;5030758;28;20544;-64
2023/11/08 09:12:10;;;;;;;6.90;1.80;;;7.20;99.90;;;;;;5036384;28;20045;-64
2023/11/08 09:14:47;;;;;;;3.47;1.05;;;7.20;99.90;;;;;;5036300;28;20402;-64
2023/11/08 09:17:20;;;;;;;3.65;1.50;;;7.30;99.90;;;;;;5040355;28;20040;-64
2023/11/08 09:19:52;;;;;;;2.95;1.10;;;7.50;99.90;;;;;;5041582;28;20124;-65
2023/11/08 09:22:24;;;;;;;2.75;1.30;;;7.60;99.90;;;;;;5040030;28;20042;-64
2023/11/08 09:24:50;;;;;;;3.08;1.35;;;7.80;99.90;;;;;;5038186;28;20107;-64
2023/11/08 09:27:23;;;;;;;3.90;1.17;;;7.90;99.90;;;;;;5031739;28;20123;-65
2023/11/08 09:29:49;;;;;;;2.15;0.80;;;8.10;99.90;;;;;;5034225;28;20551;-65
2023/11/08 09:32:16;;;;;;;5.13;1.40;;;8.10;99.90;;;;;;5033692;28;20149;-64
2023/11/08 09:34:43;;;;;;;3.20;1.30;;;8.20;99.90;;;;;;5033597;28;20117;-65
2023/11/08 09:37:16;;;;;;;4.60;1.38;;;8.30;99.90;;;;;;5033291;28;20061;-65
2023/11/08 09:39:50;;;;;;;2.43;0.90;;;8.40;99.90;;;;;;5033275;28;20045;-65
2023/11/08 09:42:23;;;;;;;;;;;8.50;99.90;;;;;;5037324;28;20060;-65
2023/11/08 09:44:50;;;;;;;2.47;1.02;;;8.50;99.90;;;;;;5043297;28;19925;-64
2023/11/08 09:47:23;;;;;;;3.97;1.00;;;8.50;99.90;;;;;;5039166;28;20064;-65
2023/11/08 09:49:56;;;;;;;1.90;0.90;;;8.60;99.90;;;;;;5038873;28;20044;-65
2023/11/08 09:52:27;;;;;;;1.43;0.80;;;8.60;99.90;;;;;;5037524;28;20067;-64
2023/11/08 09:54:56;;;;;;;2.40;0.90;;;8.60;99.90;;;;;;5040502;28;20280;-65
2023/11/08 09:57:26;;;;;;;1.73;0.90;;;8.70;99.90;;;;;;5048963;28;20047;-66
2023/11/08 09:59:56;;;;;;;2.13;1.00;;;8.70;99.90;;;;;;5034948;28;20469;-64
2023/11/08 10:02:38;;;;;;;1.67;0.90;;;8.80;99.90;;;;;;5037425;28;20412;-65
2023/11/08 10:05:10;;;;;;;4.40;1.00;;;8.80;99.90;;;;;;5035167;28;20087;-65
2023/11/08 10:07:39;;;;;;;4.70;1.02;;;8.90;99.90;;;;;;5043931;28;20032;-64
2023/11/08 10:10:11;;;;;;;2.53;1.05;;;8.90;99.90;;;;;;5022603;28;20133;-65
2023/11/08 10:12:43;;;;;;;1.60;1.00;;;8.90;99.90;;;;;;5038438;28;20116;-64
2023/11/08 10:15:21;;;;;;;2.78;0.80;;;9.00;99.90;;;;;;5026028;28;20475;-64
2023/11/08 10:17:54;;;;;;;1.83;0.77;;;9.10;99.90;;;;;;5040752;28;20417;-65
2023/11/08 10:20:20;;;;;;;2.60;1.10;;;9.10;99.90;;;;;;5036817;28;20047;-65
2023/11/08 10:22:54;;;;;;;3.17;1.55;;;9.10;99.90;;;;;;5038193;28;20049;-67
2023/11/08 10:25:28;;;;;;;1.48;0.65;;;9.10;99.90;;;;;;5049516;28;20576;-64
2023/11/08 10:28:03;;;;;;;3.35;0.93;;;9.10;99.90;;;;;;5029649;28;20057;-64
2023/11/08 10:30:40;;;;;;;1.90;1.13;;;9.10;99.90;;;;;;5036648;28;20041;-64
2023/11/08 10:33:13;;;;;;;1.90;1.00;;;9.20;99.90;;;;;;5031063;28;20056;-64
2023/11/08 10:35:55;;;;;;;2.08;0.80;;;9.30;99.90;;;;;;5030171;28;20033;-64
2023/11/08 10:38:25;;;;;;;2.75;1.00;;;9.30;99.90;;;;;;5042074;28;20060;-65
2023/11/08 10:40:56;;;;;;;3.03;1.00;;;9.30;99.90;;;;;;5036801;28;20077;-64
2023/11/08 10:43:24;;;;;;;2.03;0.90;;;9.30;99.90;;;;;;5033148;28;20049;-65
2023/11/08 10:45:56;;;;;;;2.70;0.73;;;9.30;99.90;;;;;;5021767;28;20140;-64
2023/11/08 10:48:27;;;;;;;2.22;0.80;;;9.40;99.90;;;;;;5019752;28;20091;-65
2023/11/08 10:51:00;;;;;;;1.92;0.70;;;9.40;99.90;;;;;;5040814;28;20038;-64
2023/11/08 10:53:32;;;;;;;2.63;0.70;;;9.50;99.90;;;;;;5039693;28;20041;-64
2023/11/08 10:56:07;;;;;;;4.03;0.90;;;9.60;99.90;;;;;;5010081;28;20432;-65
2023/11/08 10:58:43;;;;;;;1.10;0.68;;;9.70;99.90;;;;;;5032972;28;20045;-64
2023/11/08 11:01:18;;;;;;;1.73;0.80;;;9.80;99.90;;;;;;5019747;28;20832;-65
2023/11/08 11:03:54;;;;;;;2.83;0.95;;;9.70;99.90;;;;;;5014721;28;20049;-64
2023/11/08 11:06:26;;;;;;;1.73;0.70;;;9.60;99.90;;;;;;5033143;28;20064;-64
2023/11/08 11:08:59;;;;;;;0.85;0.52;;;9.60;99.90;;;;;;5038039;28;20138;-64
2023/11/08 11:11:33;;;;;;;0.68;0.40;;;9.70;99.90;;;;;;5031952;28;20041;-66
2023/11/08 11:14:21;;;;;;;0.70;0.40;;;9.80;99.90;;;;;;5015433;28;20195;-64
2023/11/08 11:17:29;;;;;;;2.85;0.60;;;10.00;99.90;;;;;;5031194;28;20124;-64
2023/11/08 11:20:10;;;;;;;0.57;0.30;;;10.10;99.90;;;;;;5016222;28;20038;-65
2023/11/08 11:22:42;;;;;;;1.17;0.40;;;10.20;99.90;;;;;;5039652;28;20500;-64
2023/11/08 11:25:47;;;;;;;1.40;0.50;;;10.30;99.90;;;;;;5037496;28;20069;-65
2023/11/08 11:28:34;;;;;;;0.85;0.47;;;10.40;99.90;;;;;;5032651;28;20037;-64
2023/11/08 11:31:37;;;;;;;1.13;0.57;;;10.50;99.90;;;;;;5025444;28;20069;-65
2023/11/08 11:34:25;;;;;;;1.58;0.65;;;10.60;99.90;;;;;;5034657;28;20127;-65
2023/11/08 11:37:09;;;;;;;1.67;0.60;;;10.60;99.90;;;;;;5028397;28;20585;-64
2023/11/08 11:39:39;;;;;;;1.55;0.50;;;10.50;99.90;;;;;;5011891;28;20783;-64
2023/11/08 11:42:07;;;;;;;1.77;0.50;;;10.20;99.90;;;;;;5028032;28;20116;-64
2023/11/08 11:44:54;;;;;;;1.23;0.40;;;10.00;99.90;;;;;;5032272;28;20053;-64
2023/11/08 11:47:29;;;;;;;3.90;0.75;;;9.80;99.90;;;;;;5030049;28;20054;-64
2023/11/08 11:50:03;;;;;;;3.05;0.80;;;9.70;99.90;;;;;;5018124;28;20045;-65
2023/11/08 11:52:36;;;;;;;2.38;0.60;;;9.80;99.90;;;;;;5017867;28;20034;-65
2023/11/08 11:55:05;;;;;;;1.42;0.55;;;10.00;99.90;;;;;;5020275;28;20076;-64
2023/11/08 11:57:37;;;;;;;0.73;0.40;;;10.10;99.90;;;;;;5034501;28;20029;-64
2023/11/08 12:00:13;;;;;;;3.10;0.55;;;10.30;99.90;;;;;;5033140;28;20052;-65
2023/11/08 12:02:40;;;;;;;2.70;0.60;;;10.30;99.90;;;;;;5029999;28;20711;-65
2023/11/08 12:05:13;;;;;;;0.85;0.57;;;10.30;99.90;;;;;;5026285;28;20429;-65
2023/11/08 12:07:39;;;;;;;1.70;0.57;;;10.10;99.90;;;;;;5025189;28;20034;-65
2023/11/08 12:10:11;;;;;;;1.35;0.40;;;10.10;99.90;;;;;;5025839;28;20041;-64
2023/11/08 12:12:43;;;;;;;3.30;0.60;;;10.10;99.90;;;;;;5030938;28;20041;-65
2023/11/08 12:15:18;;;;;;;1.95;0.43;;;10.10;99.90;;;;;;5027119;28;20070;-64
2023/11/08 12:17:49;;;;;;;3.22;1.05;;;9.90;99.90;;;;;;5023315;28;20091;-64
2023/11/08 12:20:20;;;;;;;1.83;0.50;;;10.00;99.90;;;;;;5033424;28;20652;-65
2023/11/08 12:22:48;;;;;;;1.45;0.47;;;10.00;99.90;;;;;;5021637;28;20128;-65
2023/11/08 12:25:21;;;;;;;3.17;0.67;;;10.00;99.90;;;;;;5036450;28;20044;-65
2023/11/08 12:27:55;;;;;;;2.05;0.60;;;10.20;99.90;;;;;;5033291;28;20041;-65
2023/11/08 12:30:28;;;;;;;2.08;0.50;;;10.20;99.90;;;;;;5031949;28;20064;-64
2023/11/08 12:32:57;;;;;;;1.23;0.60;;;10.40;99.90;;;;;;5033144;28;20413;-65
2023/11/08 12:35:24;;;;;;;1.50;0.70;;;10.40;99.90;;;;;;5018003;28;20591;-65
2023/11/08 12:37:57;;;;;;;2.13;0.73;;;10.40;99.90;;;;;;5029502;28;20041;-65
2023/11/08 12:40:29;;;;;;;2.50;0.70;;;10.30;99.90;;;;;;5022406;28;20048;-65
2023/11/08 12:43:12;;;;;;;1.55;0.70;;;10.20;99.90;;;;;;5033224;28;20047;-65
2023/11/08 12:45:44;;;;;;;3.92;0.63;;;10.30;99.90;;;;;;5035676;28;20049;-65
2023/11/08 12:48:16;;;;;;;1.30;0.95;;;10.50;99.90;;;;;;5010977;28;20049;-65
2023/11/08 12:50:49;;;;;;;5.95;1.45;;;10.70;99.90;;;;;;5010804;28;20131;-64
2023/11/08 12:53:22;;;;;;;1.13;0.60;;;10.70;99.90;;;;;;5033212;28;20048;-65
2023/11/08 12:56:14;;;;;;;2.58;0.70;;;10.80;99.90;;;;;;5028213;28;20130;-64
2023/11/08 12:58:41;;;;;;;6.80;1.65;;;11.00;99.90;;;;;;5034841;28;20154;-65
2023/11/08 13:01:19;;;;;;;1.75;0.88;;;11.00;99.90;;;;;;5034843;28;20045;-64
2023/11/08 13:03:51;;;;;;;1.38;0.68;;;11.00;99.90;;;;;;5013354;28;20041;-64
2023/11/08 13:06:23;;;;;;;1.65;0.75;;;10.90;99.90;;;;;;5032005;28;20044;-64
2023/11/08 13:08:53;;;;;;;1.88;0.77;;;10.90;99.90;;;;;;5032342;28;20124;-64
2023/11/08 13:11:20;;;;;;;2.15;0.70;;;11.10;99.90;;;;;;5025603;28;20048;-65
2023/11/08 13:13:47;;;;;;;2.55;1.10;;;10.90;99.90;;;;;;5010907;28;20466;-65
2023/11/08 13:16:19;;;;;;;1.27;0.77;;;10.60;99.90;;;;;;5017114;28;20418;-64
2023/11/08 13:18:47;;;;;;;1.58;1.00;;;10.50;99.90;;;;;;5007806;28;20037;-65
2023/11/08 13:21:14;;;;;;;2.05;0.73;;;10.60;99.90;;;;;;5037149;28;20528;-64